createdAt,value
2022-10-28T00:00:06.695Z,46
2022-10-28T00:15:05.621Z,45
2022-10-28T00:30:02.803Z,45
2022-10-28T00:45:03.125Z,45
2022-10-28T01:00:06.367Z,45
2022-10-28T01:15:02.816Z,45
2022-10-28T01:30:03.928Z,44
2022-10-28T01:45:02.532Z,44
2022-10-28T02:00:05.604Z,44
2022-10-28T02:15:02.340Z,44
2022-10-28T02:30:06.109Z,44
2022-10-28T02:45:02.317Z,44
2022-10-28T03:00:06.155Z,44
2022-10-28T03:15:03.384Z,44
2022-10-28T03:30:06.372Z,44
2022-10-28T03:45:02.070Z,44
2022-10-28T04:00:04.781Z,44
2022-10-28T04:15:03.504Z,43
2022-10-28T04:30:04.186Z,43
2022-10-28T04:45:03.302Z,43
2022-10-28T05:00:07.325Z,43
2022-10-28T05:15:02.797Z,43
2022-10-28T05:30:05.290Z,43
2022-10-28T05:45:02.138Z,43
2022-10-28T06:00:10.303Z,43
2022-10-28T06:15:02.798Z,43
2022-10-28T06:30:06.055Z,43
2022-10-28T06:45:05.373Z,43
2022-10-28T07:00:06.273Z,43
2022-10-28T07:15:03.848Z,43
2022-10-28T07:30:05.651Z,43
2022-10-28T07:45:05.165Z,43
2022-10-28T08:00:07.523Z,44
2022-10-28T08:15:02.816Z,44
2022-10-28T08:30:03.600Z,44
2022-10-28T08:45:04.055Z,45
2022-10-28T09:00:06.208Z,45
2022-10-28T09:15:03.599Z,45
2022-10-28T09:30:09.955Z,45
2022-10-28T09:45:02.891Z,45
2022-10-28T10:00:08.655Z,45
2022-10-28T10:15:03.793Z,44
2022-10-28T10:30:04.494Z,44
2022-10-28T10:45:03.671Z,44
2022-10-28T11:00:08.809Z,44
2022-10-28T11:15:03.216Z,44
2022-10-28T11:30:07.856Z,44
2022-10-28T11:45:03.941Z,43
2022-10-28T12:00:10.138Z,43
2022-10-28T12:15:03.879Z,43
2022-10-28T12:30:06.262Z,43
2022-10-28T12:45:04.416Z,43
2022-10-28T13:00:07.767Z,43
2022-10-28T13:15:03.045Z,44
2022-10-28T13:30:06.922Z,44
2022-10-28T13:45:02.774Z,44
2022-10-28T14:00:06.106Z,44
2022-10-28T14:15:04.980Z,44
2022-10-28T14:30:08.244Z,44
2022-10-28T14:45:02.610Z,45
2022-10-28T15:00:07.181Z,46
2022-10-28T15:15:05.700Z,47
2022-10-28T15:30:06.884Z,47
2022-10-28T15:45:04.399Z,48
2022-10-28T16:00:09.074Z,48
2022-10-28T16:15:03.136Z,49
2022-10-28T16:30:08.160Z,49
2022-10-28T16:45:03.413Z,50
2022-10-28T17:00:12.498Z,50
2022-10-28T17:15:03.441Z,50
2022-10-28T17:30:05.233Z,50
2022-10-28T17:45:06.311Z,50
2022-10-28T18:00:10.325Z,51
2022-10-28T18:15:02.833Z,50
2022-10-28T18:30:06.875Z,50
2022-10-28T18:45:04.885Z,50
2022-10-28T19:00:18.984Z,50
2022-10-28T19:15:02.121Z,50
2022-10-28T19:30:12.453Z,50
2022-10-28T19:45:03.627Z,50
2022-10-28T20:00:08.045Z,50
2022-10-28T20:15:03.262Z,50
2022-10-28T20:30:07.573Z,50
2022-10-28T20:45:03.268Z,50
2022-10-28T21:00:07.971Z,50
2022-10-28T21:15:02.714Z,50
2022-10-28T21:30:04.607Z,50
2022-10-28T21:45:02.344Z,50
2022-10-28T22:00:06.595Z,50
2022-10-28T22:15:02.398Z,49
2022-10-28T22:30:06.308Z,49
2022-10-28T22:45:02.325Z,49
2022-10-28T23:00:06.053Z,49
2022-10-28T23:15:03.314Z,49
2022-10-28T23:30:06.008Z,48
2022-10-28T23:45:02.245Z,48
